createdAt,value
2022-12-26T00:00:09.457Z,10.03
2022-12-26T00:02:10.911Z,10.03
2022-12-26T00:04:52.302Z,10.03
2022-12-26T00:06:34.094Z,10.03
2022-12-26T00:08:35.527Z,10.03
2022-12-26T00:10:36.918Z,10.02
2022-12-26T00:12:38.323Z,10.06
2022-12-26T00:14:40.254Z,10.07
2022-12-26T00:16:43.269Z,10.07
2022-12-26T00:18:45.495Z,10.07
2022-12-26T00:20:46.889Z,10.09
2022-12-26T00:22:50.615Z,10.09
2022-12-26T00:24:56.416Z,10.13
2022-12-26T00:26:57.814Z,10.15
2022-12-26T00:28:59.499Z,10.13
2022-12-26T00:31:06.644Z,10.14
2022-12-26T00:33:08.074Z,10.15
2022-12-26T00:35:09.710Z,10.17
2022-12-26T00:37:11.134Z,10.18
2022-12-26T00:39:12.572Z,10.20
2022-12-26T00:41:15.749Z,10.21
2022-12-26T00:43:17.269Z,10.26
2022-12-26T00:45:18.799Z,10.27
2022-12-26T00:47:20.246Z,10.25
2022-12-26T00:49:21.671Z,10.30
2022-12-26T00:51:23.149Z,10.30
2022-12-26T00:53:25.949Z,10.31
2022-12-26T00:55:27.334Z,10.30
2022-12-26T00:57:28.766Z,10.30
2022-12-26T00:59:30.207Z,10.30
2022-12-26T01:01:32.454Z,10.31
2022-12-26T01:03:34.043Z,10.33
2022-12-26T01:05:35.673Z,10.33
2022-12-26T01:08:22.369Z,10.34
2022-12-26T01:09:59.955Z,10.34
2022-12-26T01:12:01.358Z,10.36
2022-12-26T01:14:04.391Z,10.35
2022-12-26T01:16:07.275Z,10.34
2022-12-26T01:18:08.797Z,10.35
2022-12-26T01:20:10.832Z,10.34
2022-12-26T01:22:12.316Z,10.36
2022-12-26T01:24:14.031Z,10.36
2022-12-26T01:26:20.139Z,10.35
2022-12-26T01:28:21.895Z,10.36
2022-12-26T01:30:24.629Z,10.36
2022-12-26T01:32:26.122Z,10.40
2022-12-26T01:34:27.517Z,10.39
2022-12-26T01:36:28.940Z,10.38
2022-12-26T01:38:30.382Z,10.39
2022-12-26T01:40:32.008Z,10.40
2022-12-26T01:42:40.861Z,10.38
2022-12-26T01:44:55.386Z,10.36
2022-12-26T01:46:56.768Z,10.36
2022-12-26T01:49:06.706Z,10.36
2022-12-26T01:51:08.733Z,10.36
2022-12-26T01:53:22.367Z,10.36
2022-12-26T01:55:23.887Z,10.32
2022-12-26T01:57:39.268Z,10.33
2022-12-26T01:59:42.134Z,10.37
2022-12-26T02:02:10.434Z,10.37
2022-12-26T02:10:27.464Z,10.34
2022-12-26T02:12:33.915Z,10.33
2022-12-26T02:14:40.396Z,10.34
2022-12-26T02:16:43.251Z,10.35
2022-12-26T02:18:45.082Z,10.34
2022-12-26T02:20:52.227Z,10.33
2022-12-26T02:22:59.735Z,10.37
2022-12-26T02:25:45.770Z,10.36
2022-12-26T02:27:59.063Z,10.33
2022-12-26T02:30:10.537Z,10.32
2022-12-26T02:32:21.017Z,10.31
2022-12-26T02:34:44.995Z,10.28
2022-12-26T02:37:23.627Z,10.31
2022-12-26T02:39:43.363Z,10.28
2022-12-26T02:42:21.682Z,10.31
2022-12-26T02:44:57.242Z,10.30
2022-12-26T02:47:12.558Z,10.29
2022-12-26T02:49:27.921Z,10.32
2022-12-26T02:52:06.958Z,10.30
2022-12-26T02:54:54.844Z,10.29
2022-12-26T02:57:24.622Z,10.28
2022-12-26T02:59:58.914Z,10.28
2022-12-26T03:02:22.698Z,10.28
2022-12-26T03:04:46.289Z,10.30
2022-12-26T03:07:17.418Z,10.30
2022-12-26T03:09:43.001Z,10.30
2022-12-26T03:12:09.979Z,10.34
2022-12-26T03:14:18.995Z,10.34
2022-12-26T03:16:44.623Z,10.29
2022-12-26T03:18:58.212Z,10.30
2022-12-26T03:21:03.625Z,10.29
2022-12-26T03:23:11.950Z,10.29
2022-12-26T03:25:56.008Z,10.25
2022-12-26T03:27:57.495Z,10.27
2022-12-26T03:30:18.762Z,10.27
2022-12-26T03:32:20.552Z,10.28
2022-12-26T03:34:22.156Z,10.26
2022-12-26T03:36:39.694Z,10.23
2022-12-26T03:39:07.876Z,10.23
2022-12-26T03:41:36.821Z,10.22
2022-12-26T03:44:15.571Z,10.22
2022-12-26T03:46:55.462Z,10.24
2022-12-26T03:49:26.591Z,10.20
2022-12-26T03:51:59.780Z,10.20
2022-12-26T03:54:41.125Z,10.16
2022-12-26T03:57:19.740Z,10.18
2022-12-26T04:00:04.475Z,10.16
2022-12-26T04:02:29.083Z,10.17
2022-12-26T04:04:51.847Z,10.18
2022-12-26T04:07:23.526Z,10.19
2022-12-26T04:09:59.786Z,10.15
2022-12-26T04:12:21.324Z,10.13
2022-12-26T04:15:23.130Z,10.13
2022-12-26T04:18:06.580Z,10.10
2022-12-26T04:20:24.152Z,10.08
2022-12-26T04:23:32.680Z,10.02
2022-12-26T04:26:04.560Z,10.02
2022-12-26T04:28:24.711Z,10.05
2022-12-26T04:30:44.368Z,9.99
2022-12-26T04:33:06.549Z,9.98
2022-12-26T04:35:36.889Z,9.93
2022-12-26T04:38:00.409Z,9.86
2022-12-26T04:40:23.639Z,9.80
2022-12-26T04:42:45.368Z,9.76
2022-12-26T04:44:49.872Z,9.73
2022-12-26T04:46:53.409Z,9.71
2022-12-26T04:49:15.072Z,9.62
2022-12-26T04:51:16.459Z,9.59
2022-12-26T04:53:18.970Z,9.64
2022-12-26T04:55:20.408Z,9.57
2022-12-26T04:57:21.795Z,9.51
2022-12-26T04:59:24.051Z,9.49
2022-12-26T05:01:44.198Z,9.46
2022-12-26T05:04:04.434Z,9.44
2022-12-26T05:06:27.523Z,9.40
2022-12-26T05:09:00.563Z,9.39
2022-12-26T05:11:01.948Z,9.43
2022-12-26T05:13:03.491Z,9.37
2022-12-26T05:15:05.303Z,9.31
2022-12-26T05:17:25.822Z,9.36
2022-12-26T05:19:45.471Z,9.32
2022-12-26T05:22:05.703Z,9.26
2022-12-26T05:24:28.428Z,9.27
2022-12-26T05:26:48.256Z,9.23
2022-12-26T05:28:59.335Z,9.26
2022-12-26T05:31:01.938Z,9.21
2022-12-26T05:33:21.864Z,9.23
2022-12-26T05:35:23.221Z,9.19
2022-12-26T05:37:24.667Z,9.11
2022-12-26T05:39:26.067Z,9.11
2022-12-26T05:41:27.737Z,9.11
2022-12-26T05:43:29.703Z,9.11
2022-12-26T05:45:33.476Z,9.08
2022-12-26T05:47:34.965Z,9.10
2022-12-26T05:49:36.355Z,9.06
2022-12-26T05:51:37.790Z,9.02
2022-12-26T05:53:39.226Z,9.04
2022-12-26T05:55:41.440Z,9.01
2022-12-26T05:57:42.841Z,8.99
2022-12-26T05:59:44.283Z,8.94
2022-12-26T06:01:45.879Z,8.93
2022-12-26T06:03:50.268Z,9.01
2022-12-26T06:05:51.731Z,9.02
2022-12-26T06:07:53.131Z,8.98
2022-12-26T06:09:54.497Z,8.99
2022-12-26T06:11:55.911Z,9.00
2022-12-26T06:13:57.365Z,8.98
2022-12-26T06:15:58.890Z,9.05
2022-12-26T06:18:00.377Z,9.05
2022-12-26T06:20:01.845Z,8.99
2022-12-26T06:22:03.249Z,8.97
2022-12-26T06:24:04.857Z,8.95
2022-12-26T06:26:08.957Z,8.99
2022-12-26T06:28:10.353Z,8.94
2022-12-26T06:30:12.110Z,8.94
2022-12-26T06:32:13.546Z,8.96
2022-12-26T06:34:14.961Z,8.98
2022-12-26T06:36:18.555Z,8.93
2022-12-26T06:38:19.972Z,8.94
2022-12-26T06:40:21.310Z,8.88
2022-12-26T06:42:22.840Z,8.90
2022-12-26T06:44:24.276Z,8.86
2022-12-26T06:46:26.705Z,8.83
2022-12-26T06:48:28.648Z,8.83
2022-12-26T06:50:30.123Z,8.84
2022-12-26T06:52:31.489Z,8.86
2022-12-26T06:54:32.910Z,8.87
2022-12-26T06:56:35.327Z,8.84
2022-12-26T06:58:37.027Z,8.83
2022-12-26T07:00:38.463Z,8.81
2022-12-26T07:02:40.039Z,8.81
2022-12-26T07:04:41.630Z,8.80
2022-12-26T07:06:43.012Z,8.79
2022-12-26T07:08:44.405Z,8.80
2022-12-26T07:10:45.786Z,8.91
2022-12-26T07:12:48.407Z,8.89
2022-12-26T07:14:49.785Z,8.86
2022-12-26T07:16:51.334Z,8.93
2022-12-26T07:18:56.440Z,8.93
2022-12-26T07:20:57.853Z,8.93
2022-12-26T07:22:59.411Z,8.91
2022-12-26T07:25:00.837Z,8.90
2022-12-26T07:27:02.202Z,8.97
2022-12-26T07:29:03.587Z,8.92
2022-12-26T07:31:05.730Z,8.97
2022-12-26T07:33:07.139Z,8.97
2022-12-26T07:35:09.320Z,9.02
2022-12-26T07:37:11.118Z,9.04
2022-12-26T07:39:14.386Z,9.07
2022-12-26T07:41:34.920Z,9.06
2022-12-26T07:43:37.146Z,9.05
2022-12-26T07:45:43.502Z,9.05
2022-12-26T07:47:47.215Z,9.03
2022-12-26T07:49:48.903Z,9.04
2022-12-26T07:51:51.174Z,9.06
2022-12-26T07:53:52.968Z,9.03
2022-12-26T07:55:59.722Z,9.02
2022-12-26T07:58:01.519Z,9.00
2022-12-26T08:00:05.133Z,9.02
2022-12-26T08:02:07.150Z,9.02
2022-12-26T08:04:10.219Z,9.03
2022-12-26T08:06:12.676Z,9.05
2022-12-26T08:08:14.582Z,9.10
2022-12-26T08:10:17.665Z,9.12
2022-12-26T08:12:21.844Z,9.14
2022-12-26T08:14:23.491Z,9.15
2022-12-26T08:16:25.239Z,9.18
2022-12-26T08:18:27.313Z,9.13
2022-12-26T08:20:28.740Z,9.16
2022-12-26T08:22:30.476Z,9.11
2022-12-26T08:24:32.311Z,9.11
2022-12-26T08:26:33.965Z,9.12
2022-12-26T08:28:36.100Z,9.07
2022-12-26T08:30:40.826Z,9.01
2022-12-26T08:32:46.144Z,9.03
2022-12-26T08:34:48.333Z,9.08
2022-12-26T08:36:53.298Z,9.18
2022-12-26T08:38:55.140Z,9.16
2022-12-26T08:40:57.303Z,9.19
2022-12-26T08:43:21.531Z,9.18
2022-12-26T08:45:21.172Z,9.22
2022-12-26T08:47:26.497Z,9.26
2022-12-26T08:49:28.359Z,9.23
2022-12-26T08:51:30.481Z,9.21
2022-12-26T08:53:35.721Z,9.22
2022-12-26T08:55:37.571Z,9.23
2022-12-26T08:57:39.401Z,9.26
2022-12-26T08:59:41.330Z,9.26
2022-12-26T09:01:43.187Z,9.31
2022-12-26T09:03:45.580Z,9.32
2022-12-26T09:05:47.752Z,9.34
2022-12-26T09:07:49.622Z,9.34
2022-12-26T09:09:51.378Z,9.34
2022-12-26T09:11:53.530Z,9.36
2022-12-26T09:13:58.158Z,9.33
2022-12-26T09:16:08.674Z,9.26
2022-12-26T09:18:10.988Z,9.24
2022-12-26T09:20:13.410Z,9.15
2022-12-26T09:22:35.468Z,9.19
2022-12-26T09:24:37.512Z,9.20
2022-12-26T09:26:39.586Z,9.20
2022-12-26T09:28:41.982Z,9.26
2022-12-26T09:30:44.972Z,9.31
2022-12-26T09:32:46.760Z,9.23
2022-12-26T09:34:49.481Z,9.24
2022-12-26T09:36:50.877Z,9.20
2022-12-26T09:38:53.176Z,9.18
2022-12-26T09:41:03.610Z,9.17
2022-12-26T09:43:27.631Z,9.22
2022-12-26T09:46:13.749Z,9.20
2022-12-26T09:48:27.622Z,9.23
2022-12-26T09:50:39.622Z,9.24
2022-12-26T09:52:51.974Z,9.31
2022-12-26T09:54:58.656Z,9.33
2022-12-26T09:57:06.303Z,9.35
2022-12-26T09:59:20.465Z,9.29
2022-12-26T10:01:26.175Z,9.34
2022-12-26T10:03:28.611Z,9.30
2022-12-26T10:05:40.448Z,9.28
2022-12-26T10:07:46.704Z,9.32
2022-12-26T10:09:57.771Z,9.29
2022-12-26T10:12:05.124Z,9.23
2022-12-26T10:14:21.408Z,9.34
2022-12-26T10:16:38.729Z,9.32
2022-12-26T10:18:50.703Z,9.31
2022-12-26T10:21:27.016Z,9.30
2022-12-26T10:23:36.779Z,9.42
2022-12-26T10:25:57.207Z,9.40
2022-12-26T10:27:59.191Z,9.50
2022-12-26T10:30:05.784Z,9.57
2022-12-26T10:32:14.303Z,9.59
2022-12-26T10:34:25.675Z,9.62
2022-12-26T10:36:35.234Z,9.66
2022-12-26T10:38:41.181Z,9.62
2022-12-26T10:40:46.258Z,9.62
2022-12-26T10:42:54.404Z,9.69
2022-12-26T10:44:56.861Z,9.67
2022-12-26T10:47:27.380Z,9.64
2022-12-26T10:49:29.031Z,9.65
2022-12-26T10:51:30.558Z,9.63
2022-12-26T10:53:32.750Z,9.57
2022-12-26T10:55:35.484Z,9.54
2022-12-26T10:57:41.367Z,9.59
2022-12-26T10:59:49.654Z,9.64
2022-12-26T11:01:51.286Z,9.65
2022-12-26T11:03:58.035Z,9.68
2022-12-26T11:06:08.011Z,9.73
2022-12-26T11:08:25.185Z,9.82
2022-12-26T11:10:29.333Z,9.90
2022-12-26T11:12:30.657Z,9.97
2022-12-26T11:14:44.432Z,10.04
2022-12-26T11:16:49.114Z,10.01
2022-12-26T11:18:52.083Z,10.01
2022-12-26T11:20:53.798Z,10.09
2022-12-26T11:22:55.496Z,10.09
2022-12-26T11:25:10.090Z,10.11
2022-12-26T11:27:20.373Z,10.10
2022-12-26T11:29:24.375Z,10.08
2022-12-26T11:31:28.031Z,10.03
2022-12-26T11:33:47.852Z,9.99
2022-12-26T11:36:01.991Z,10.03
2022-12-26T11:38:06.791Z,10.00
2022-12-26T11:40:18.744Z,10.06
2022-12-26T11:42:23.685Z,10.07
2022-12-26T11:44:30.914Z,10.11
2022-12-26T11:46:40.920Z,10.15
2022-12-26T11:48:49.648Z,10.15
2022-12-26T11:50:52.001Z,10.20
2022-12-26T11:53:06.909Z,10.22
2022-12-26T11:55:23.826Z,10.23
2022-12-26T11:57:33.314Z,10.26
2022-12-26T11:59:34.709Z,10.25
2022-12-26T12:01:36.127Z,10.29
2022-12-26T12:03:49.367Z,10.23
2022-12-26T12:06:16.533Z,10.29
2022-12-26T12:08:32.946Z,10.23
2022-12-26T12:10:42.922Z,10.22
2022-12-26T12:12:54.190Z,10.16
2022-12-26T12:15:15.558Z,10.21
2022-12-26T12:17:24.319Z,10.13
2022-12-26T12:19:41.014Z,10.05
2022-12-26T12:21:49.678Z,10.13
2022-12-26T12:24:03.980Z,10.09
2022-12-26T12:26:11.733Z,10.22
2022-12-26T12:28:46.997Z,10.09
2022-12-26T12:31:06.675Z,10.05
2022-12-26T12:33:25.368Z,9.95
2022-12-26T12:35:35.808Z,9.99
2022-12-26T12:37:54.250Z,9.94
2022-12-26T12:39:58.571Z,9.92
2022-12-26T12:42:34.820Z,9.86
2022-12-26T12:45:01.045Z,9.88
2022-12-26T12:47:08.524Z,9.94
2022-12-26T12:49:23.827Z,9.94
2022-12-26T12:52:08.204Z,10.10
2022-12-26T12:54:12.764Z,10.07
2022-12-26T12:56:41.929Z,10.17
2022-12-26T12:58:58.988Z,10.14
2022-12-26T13:01:15.816Z,10.07
2022-12-26T13:03:26.446Z,10.13
2022-12-26T13:05:38.737Z,10.15
2022-12-26T13:07:47.676Z,10.15
2022-12-26T13:10:06.195Z,10.11
2022-12-26T13:12:15.589Z,10.12
2022-12-26T13:14:23.305Z,10.18
2022-12-26T13:16:33.407Z,10.06
2022-12-26T13:18:40.241Z,10.01
2022-12-26T13:20:46.423Z,9.98
2022-12-26T13:23:12.721Z,9.91
2022-12-26T13:25:14.569Z,9.40
2022-12-26T13:27:21.409Z,8.94
2022-12-26T13:29:22.729Z,8.72
2022-12-26T13:31:24.494Z,8.66
2022-12-26T13:33:27.105Z,8.74
2022-12-26T13:35:50.782Z,8.78
2022-12-26T13:37:56.030Z,8.87
2022-12-26T13:40:03.142Z,8.75
2022-12-26T13:42:29.146Z,8.71
2022-12-26T13:44:32.759Z,8.73
2022-12-26T13:46:55.176Z,8.59
2022-12-26T13:48:58.881Z,8.53
2022-12-26T13:51:03.203Z,8.46
2022-12-26T13:53:25.418Z,8.54
2022-12-26T13:55:40.758Z,8.58
2022-12-26T13:57:44.867Z,8.43
2022-12-26T14:00:13.228Z,8.48
2022-12-26T14:03:16.871Z,8.42
2022-12-26T14:05:32.682Z,8.45
2022-12-26T14:07:55.113Z,8.49
2022-12-26T14:10:43.416Z,8.44
2022-12-26T14:13:22.964Z,8.32
2022-12-26T14:15:36.416Z,8.28
2022-12-26T14:18:05.517Z,8.30
2022-12-26T14:20:39.560Z,8.32
2022-12-26T14:23:06.168Z,8.27
2022-12-26T14:25:29.312Z,8.21
2022-12-26T14:28:07.178Z,8.23
2022-12-26T14:30:20.025Z,8.11
2022-12-26T14:32:34.333Z,8.14
2022-12-26T14:35:08.241Z,8.14
2022-12-26T14:37:09.601Z,8.13
2022-12-26T14:39:25.975Z,8.12
2022-12-26T14:41:46.037Z,8.08
2022-12-26T14:43:47.534Z,8.07
2022-12-26T14:45:51.195Z,8.11
2022-12-26T14:47:52.782Z,7.96
2022-12-26T14:49:55.493Z,8.06
2022-12-26T14:52:24.380Z,7.91
2022-12-26T14:54:25.770Z,7.72
2022-12-26T14:56:27.105Z,7.72
2022-12-26T14:58:31.399Z,7.60
2022-12-26T15:00:33.911Z,7.60
2022-12-26T15:02:36.256Z,7.57
2022-12-26T15:04:56.519Z,7.58
2022-12-26T15:07:03.977Z,7.37
2022-12-26T15:09:43.151Z,7.46
2022-12-26T15:11:53.598Z,7.54
2022-12-26T15:14:08.006Z,7.45
2022-12-26T15:16:27.712Z,7.28
2022-12-26T15:19:15.375Z,7.32
2022-12-26T15:21:31.792Z,7.33
2022-12-26T15:23:33.142Z,7.27
2022-12-26T15:25:54.229Z,7.25
2022-12-26T15:28:01.380Z,7.23
2022-12-26T15:30:17.121Z,7.34
2022-12-26T15:32:33.313Z,7.28
2022-12-26T15:34:47.634Z,7.24
2022-12-26T15:37:00.482Z,7.15
2022-12-26T15:39:16.920Z,7.09
2022-12-26T15:41:44.354Z,6.90
2022-12-26T15:43:57.486Z,6.87
2022-12-26T15:46:03.761Z,6.89
2022-12-26T15:48:29.869Z,6.89
2022-12-26T15:50:50.034Z,6.92
2022-12-26T15:53:01.841Z,6.88
2022-12-26T15:55:14.799Z,6.76
2022-12-26T15:57:43.670Z,6.80
2022-12-26T15:59:54.206Z,6.74
2022-12-26T16:01:56.251Z,6.80
2022-12-26T16:04:00.585Z,6.78
2022-12-26T16:06:20.724Z,6.61
2022-12-26T16:08:40.192Z,6.54
2022-12-26T16:10:42.099Z,6.57
2022-12-26T16:12:58.451Z,6.51
2022-12-26T16:15:08.938Z,6.43
2022-12-26T16:17:17.048Z,6.48
2022-12-26T16:19:21.965Z,6.54
2022-12-26T16:21:46.412Z,6.54
2022-12-26T16:23:50.388Z,6.44
2022-12-26T16:25:55.447Z,6.36
2022-12-26T16:28:00.134Z,6.40
2022-12-26T16:30:11.638Z,6.43
2022-12-26T16:32:17.978Z,6.40
2022-12-26T16:34:20.780Z,6.39
2022-12-26T16:36:25.242Z,6.21
2022-12-26T16:38:30.098Z,6.18
2022-12-26T16:40:46.557Z,6.29
2022-12-26T16:42:58.930Z,6.21
2022-12-26T16:45:00.766Z,6.21
2022-12-26T16:47:06.720Z,6.08
2022-12-26T16:49:10.003Z,5.94
2022-12-26T16:51:37.956Z,5.81
2022-12-26T16:53:39.276Z,5.78
2022-12-26T16:55:45.455Z,5.81
2022-12-26T16:57:46.997Z,5.77
2022-12-26T16:59:55.593Z,5.67
2022-12-26T17:01:59.756Z,5.75
2022-12-26T17:04:08.265Z,5.82
2022-12-26T17:06:16.913Z,5.75
2022-12-26T17:08:18.925Z,5.71
2022-12-26T17:10:24.370Z,5.61
2022-12-26T17:12:35.358Z,5.62
2022-12-26T17:14:41.412Z,5.59
2022-12-26T17:16:42.854Z,5.59
2022-12-26T17:18:50.039Z,5.56
2022-12-26T17:20:52.020Z,5.54
2022-12-26T17:22:55.492Z,5.56
2022-12-26T17:25:26.105Z,5.51
2022-12-26T17:27:27.570Z,5.46
2022-12-26T17:29:36.010Z,5.45
2022-12-26T17:31:40.219Z,5.50
2022-12-26T17:33:47.731Z,5.51
2022-12-26T17:38:20.241Z,5.36
2022-12-26T17:40:30.339Z,5.27
2022-12-26T17:42:43.335Z,5.15
2022-12-26T17:44:45.853Z,5.18
2022-12-26T17:46:47.312Z,5.21
2022-12-26T17:48:49.143Z,5.12
2022-12-26T17:50:56.045Z,5.17
2022-12-26T17:53:19.016Z,5.20
2022-12-26T17:55:27.414Z,5.16
2022-12-26T17:57:29.626Z,5.10
2022-12-26T17:59:31.037Z,5.12
2022-12-26T18:01:32.552Z,5.09
2022-12-26T18:03:34.022Z,5.17
2022-12-26T18:05:36.492Z,5.13
2022-12-26T18:07:38.238Z,5.07
2022-12-26T18:09:39.689Z,5.01
2022-12-26T18:11:41.070Z,4.97
2022-12-26T18:13:43.150Z,4.96
2022-12-26T18:15:44.595Z,4.94
2022-12-26T18:17:47.785Z,4.89
2022-12-26T18:19:49.986Z,4.85
2022-12-26T18:21:51.389Z,4.80
2022-12-26T18:23:53.135Z,4.68
2022-12-26T18:25:57.641Z,4.61
2022-12-26T18:27:59.622Z,4.56
2022-12-26T18:30:01.692Z,4.58
2022-12-26T18:32:03.131Z,4.60
2022-12-26T18:34:04.659Z,4.68
2022-12-26T18:36:07.903Z,4.52
2022-12-26T18:38:14.370Z,4.41
2022-12-26T18:40:33.631Z,4.31
2022-12-26T18:42:35.052Z,4.32
2022-12-26T18:44:36.465Z,4.29
2022-12-26T18:46:37.878Z,4.20
2022-12-26T18:48:39.287Z,4.24
2022-12-26T18:50:41.077Z,4.21
2022-12-26T18:52:42.537Z,4.19
2022-12-26T18:54:44.046Z,4.14
2022-12-26T18:56:45.460Z,4.10
2022-12-26T18:58:52.395Z,4.05
2022-12-26T19:00:58.083Z,4.02
2022-12-26T19:02:59.515Z,3.97
2022-12-26T19:05:00.994Z,3.87
2022-12-26T19:07:02.343Z,3.90
2022-12-26T19:09:03.885Z,3.84
2022-12-26T19:11:05.310Z,3.85
2022-12-26T19:13:06.811Z,3.74
2022-12-26T19:15:09.270Z,3.75
2022-12-26T19:17:10.733Z,3.67
2022-12-26T19:19:12.229Z,3.62
2022-12-26T19:21:15.309Z,3.51
2022-12-26T19:23:16.741Z,3.46
2022-12-26T19:25:19.980Z,3.43
2022-12-26T19:27:21.738Z,3.37
2022-12-26T19:29:23.158Z,3.44
2022-12-26T19:31:24.652Z,3.37
2022-12-26T19:33:26.031Z,3.40
2022-12-26T19:35:27.470Z,3.39
2022-12-26T19:37:29.227Z,3.35
2022-12-26T19:39:30.660Z,3.33
2022-12-26T19:41:32.066Z,3.28
2022-12-26T19:43:33.919Z,3.21
2022-12-26T19:45:35.392Z,3.22
2022-12-26T19:47:37.091Z,3.18
2022-12-26T19:49:38.472Z,3.15
2022-12-26T19:51:39.902Z,3.13
2022-12-26T19:53:41.923Z,3.12
2022-12-26T19:55:43.333Z,3.07
2022-12-26T19:57:44.724Z,2.98
2022-12-26T19:59:46.102Z,2.96
2022-12-26T20:01:47.593Z,2.93
2022-12-26T20:03:50.008Z,2.93
2022-12-26T20:05:51.399Z,2.87
2022-12-26T20:07:52.781Z,2.85
2022-12-26T20:09:54.157Z,2.80
2022-12-26T20:11:56.692Z,2.80
2022-12-26T20:14:00.382Z,2.81
2022-12-26T20:16:18.767Z,2.77
2022-12-26T20:18:30.576Z,2.72
2022-12-26T20:20:32.045Z,2.67
2022-12-26T20:22:33.570Z,2.68
2022-12-26T20:24:34.997Z,2.66
2022-12-26T20:26:36.442Z,2.64
2022-12-26T20:28:38.038Z,2.51
2022-12-26T20:30:39.872Z,2.47
2022-12-26T20:32:47.227Z,2.44
2022-12-26T20:34:48.638Z,2.42
2022-12-26T20:36:50.179Z,2.42
2022-12-26T20:38:56.644Z,2.41
2022-12-26T20:40:58.262Z,2.40
2022-12-26T20:42:59.679Z,2.35
2022-12-26T20:45:01.108Z,2.31
2022-12-26T20:47:02.493Z,2.34
2022-12-26T20:49:04.947Z,2.31
2022-12-26T20:51:08.858Z,2.27
2022-12-26T20:53:10.280Z,2.18
2022-12-26T20:55:11.730Z,2.20
2022-12-26T20:57:13.696Z,2.21
2022-12-26T20:59:15.148Z,2.11
2022-12-26T21:01:21.716Z,2.09
2022-12-26T21:03:23.710Z,2.08
2022-12-26T21:05:25.225Z,2.02
2022-12-26T21:07:26.664Z,2.04
2022-12-26T21:09:28.137Z,2.01
2022-12-26T21:11:35.018Z,1.97
2022-12-26T21:13:37.931Z,1.98
2022-12-26T21:15:39.537Z,1.94
2022-12-26T21:17:40.953Z,1.99
2022-12-26T21:19:42.506Z,1.97
2022-12-26T21:21:47.060Z,1.95
2022-12-26T21:23:49.953Z,1.94
2022-12-26T21:25:51.437Z,1.89
2022-12-26T21:27:57.370Z,1.88
2022-12-26T21:30:00.490Z,1.86
2022-12-26T21:32:03.115Z,1.82
2022-12-26T21:34:05.384Z,1.79
2022-12-26T21:36:11.770Z,1.78
2022-12-26T21:38:13.223Z,1.90
2022-12-26T21:40:15.369Z,1.90
2022-12-26T21:42:17.345Z,1.87
2022-12-26T21:44:18.906Z,1.85
2022-12-26T21:46:20.604Z,1.80
2022-12-26T21:48:22.068Z,1.93
2022-12-26T21:50:23.455Z,1.89
2022-12-26T21:52:24.928Z,2.02
2022-12-26T21:54:48.616Z,1.95
2022-12-26T21:56:51.019Z,1.98
2022-12-26T21:59:12.344Z,1.99
2022-12-26T22:01:21.015Z,1.96
2022-12-26T22:03:41.018Z,1.98
2022-12-26T22:05:42.477Z,2.05
2022-12-26T22:07:43.909Z,2.10
2022-12-26T22:09:45.293Z,2.19
2022-12-26T22:12:19.205Z,2.19
2022-12-26T22:14:20.985Z,2.12
2022-12-26T22:16:22.755Z,2.43
2022-12-26T22:18:24.186Z,2.30
2022-12-26T22:20:25.679Z,2.31
2022-12-26T22:22:27.082Z,2.36
2022-12-26T22:24:28.649Z,2.32
2022-12-26T22:26:30.239Z,2.30
2022-12-26T22:28:31.839Z,2.24
2022-12-26T22:30:33.293Z,2.27
2022-12-26T22:32:34.766Z,2.27
2022-12-26T22:34:36.224Z,2.36
2022-12-26T22:36:37.834Z,2.42
2022-12-26T22:38:39.239Z,2.58
2022-12-26T22:40:40.793Z,2.60
2022-12-26T22:42:42.178Z,2.57
2022-12-26T22:44:43.594Z,2.63
2022-12-26T22:46:45.004Z,2.65
2022-12-26T22:48:46.742Z,2.69
2022-12-26T22:50:51.571Z,2.71
2022-12-26T22:52:53.034Z,2.73
2022-12-26T22:54:54.392Z,2.75
2022-12-26T22:56:55.740Z,2.74
2022-12-26T22:59:00.569Z,2.80
2022-12-26T23:01:02.177Z,2.89
2022-12-26T23:03:04.079Z,2.94
2022-12-26T23:05:06.376Z,2.83
2022-12-26T23:07:14.169Z,2.85
2022-12-26T23:09:17.267Z,2.80
2022-12-26T23:11:19.006Z,2.83
2022-12-26T23:13:20.701Z,2.93
2022-12-26T23:15:25.072Z,2.88
2022-12-26T23:17:49.378Z,2.80
2022-12-26T23:20:10.792Z,2.77
2022-12-26T23:22:12.389Z,2.83
2022-12-26T23:24:18.610Z,2.81
2022-12-26T23:26:19.954Z,2.82
2022-12-26T23:28:39.722Z,2.86
2022-12-26T23:30:41.011Z,2.88
2022-12-26T23:32:43.919Z,2.84
2022-12-26T23:34:45.315Z,2.72
2022-12-26T23:36:46.739Z,2.69
2022-12-26T23:38:48.202Z,2.68
2022-12-26T23:40:49.688Z,2.66
2022-12-26T23:42:51.102Z,2.71
2022-12-26T23:44:52.463Z,2.68
2022-12-26T23:46:53.912Z,2.63
2022-12-26T23:48:56.682Z,2.66
2022-12-26T23:51:08.898Z,2.57
2022-12-26T23:53:10.290Z,2.61
2022-12-26T23:55:12.515Z,2.64
2022-12-26T23:57:13.898Z,2.59
2022-12-26T23:59:15.358Z,2.53
